Tiempo atmosférico en la estación meteorológica de Telde, Centro Forestal Doramas, Las Palmas (344 m.)



Fecha
DESCASC
Temp. máxima en grados centígrados (hora)
DESCASC
Temp. mínima en grados centígrados (hora)
DESCASC
Temp. media en grados centígrados
DESCASC
Racha de viento máxima en m/sg (hora)
DESCASC
Velocidad máxima media en intervalos de 10 minutos(hora)
DESCASC
Precipitaciones diarias en mm
DESCASC
Precipitaciones de 00:00 a 06:00 en mm
DESCASC
Precipitaciones de 06:00 a 12:00 en mm
DESCASC
Precipitaciones de 12:00 a 18:00 en mm
DESCASC
Precipitaciones de 18:00 a 24:00 en mm
DESCASC
15-08-2019 29 (14:40) 21 (01:10) 25 10.28 (13:10) 7.22 (13:00) 0 0 0 0 0
14-08-2019 28.5 (14:40) 18.8 (00:00) 23.6 10.56 (00:50) 6.39 (00:20) 0 0 0 0 0
13-08-2019 25.2 (13:30) 19 (00:00) 22.1 14.17 (19:00) 8.61 (18:30) 0 0 0 0 0
12-08-2019 25.6 (14:40) 20.4 (00:00) 23 14.17 (22:00) 8.06 (12:20) 0 0 0 0 0
11-08-2019 25.1 (12:50) 20.1 (00:00) 22.6 13.06 (12:20) 8.33 (12:30) 0 0 0 0 0
10-08-2019 28.6 (11:30) 21.9 (00:00) 25.3 13.89 (23:40) 7.78 (23:40) 0 0 0 0 0
09-08-2019 27 (14:20) 18 (00:00) 22.5 7.22 (10:30) 4.17 (14:30) 0 0 0 0 0
08-08-2019 25 (11:00) 16.8 (00:00) 20.9 7.5 (00:10) 4.72 (13:30) 0 0 0 0 0
07-08-2019 26.2 (13:50) 18.9 (00:00) 22.6 11.39 (05:50) 6.67 (05:20) 0 0 0 0 0
06-08-2019 25.7 (14:00) 19.5 (00:00) 22.6 15.83 (15:00) 9.17 (16:50) 0 0 0 0 0
05-08-2019 26.8 (14:40) 19.5 (00:00) 23.1 11.39 (21:00) 7.22 (18:50) 0 0 0 0 0
04-08-2019 24.7 (16:20) 18 (00:00) 21.4 12.78 (14:40) 7.78 (16:30) 0 0 0 0 0
03-08-2019 23.8 (17:10) 18 (00:00) 20.9 12.78 (18:50) 8.61 (09:30) 0 0 0 0 0
02-08-2019 24.9 (16:20) 18.2 (00:00) 21.6 12.5 (17:50) 7.5 (17:10) 0 0 0 0 0
01-08-2019 24.2 (14:50) 18.1 (00:00) 21.2 13.06 (01:50) 7.5 (13:00) 0 0 0 0 0
31-07-2019 23.1 (13:20) 18.2 (00:00) 20.7 15 (11:20) 8.33 (15:10) 0 0 0 0 0
30-07-2019 22.4 (17:30) 18.6 (00:00) 20.5 16.11 (23:40) 8.33 (18:00) 0.2 0 0.2 0 0
29-07-2019 -- (--) -- (--) -- -- (--) -- (--) -- 0 0 -- 0
28-07-2019 24.7 (13:30) 18.7 (00:00) 21.7 13.61 (17:10) 8.61 (17:10) 0 0 0 0 0
27-07-2019 24.3 (16:50) 18.8 (00:00) 21.5 12.5 (07:10) 7.78 (01:10) 0 0 0 0 0
26-07-2019 26.1 (08:40) 20.5 (00:00) 23.3 13.06 (11:00) 9.17 (11:40) 0 0 0 0 0
25-07-2019 29.9 (12:10) 21.2 (00:00) 25.6 11.11 (21:50) 6.94 (14:50) 0 0 0 0 0
24-07-2019 30.9 (16:40) 18.7 (00:00) 24.8 11.94 (01:10) 8.33 (01:20) 0 0 0 0 0
23-07-2019 25 (14:20) 17.7 (00:00) 21.4 14.44 (00:10) 9.17 (11:50) 0 0 0 0 0
22-07-2019 24.7 (15:40) 17.8 (00:00) 21.3 12.78 (08:30) 9.17 (22:10) 0 0 0 0 0
21-07-2019 24.6 (15:30) 18.7 (00:00) 21.7 11.67 (17:20) 7.78 (16:20) 0 0 0 0 0
20-07-2019 24.4 (16:00) 18.6 (00:00) 21.5 12.22 (16:40) 7.5 (20:00) 0 0 0 0 0
19-07-2019 23.8 (15:10) 18.3 (00:00) 21 16.11 (13:10) 8.89 (16:40) 0 0 0 0 0
18-07-2019 22.8 (15:00) 17.9 (00:00) 20.3 15.28 (18:30) 8.89 (19:50) 0 0 0 0 0

Gráficas

Temp. máximas Temp. mínimas Temp. medias Precipitaciones Rachas de viento máximas Velocidades máximas media en intervalos de 10 minutos

Datos horarios

Fecha y hora oficial Temperatura (ºC) Velocidad del viento (km/h) Dirección del viento Racha (km/h) Dirección de racha Precipitación (mm) Presión (hPa) Tendencia (hPa) Humedad (%)
2019-08-16 23:00:00 23.8 8 Sudeste 18 Oeste 0 -- -- 66
2019-08-16 22:00:00 24.3 6 Oeste 25 Norte 0 -- -- 66
2019-08-16 21:00:00 24.3 8 Norte 22 Norte 0 -- -- 68
2019-08-16 20:00:00 26.7 9 Norte 20 Sudeste 0 -- -- 60
2019-08-16 19:00:00 28.4 12 Sudeste 17 Este 0 -- -- 57
2019-08-16 18:00:00 31.2 10 Este 19 Este 0 -- -- 48
2019-08-16 17:00:00 32.2 9 Este 24 Sudeste 0 -- -- 45
2019-08-16 16:00:00 32.4 15 Este 26 Este 0 -- -- 46
2019-08-16 15:00:00 34.3 15 Norte 33 Noroeste 0 -- -- 29
2019-08-16 14:00:00 31.9 21 Norte 32 Noroeste 0 -- -- 34
2019-08-16 13:00:00 32.6 18 Noroeste 30 Norte 0 -- -- 30
2019-08-16 12:00:00 31 13 Noroeste 27 Noroeste 0 -- -- 35
2019-08-16 11:00:00 29.4 7 Nordeste 23 Sudeste 0 -- -- 44
2019-08-16 10:00:00 26.3 10 Noroeste 20 Noroeste 0 -- -- 52
2019-08-16 09:00:00 24 4 Sur 18 Oeste 0 -- -- 50
2019-08-16 08:00:00 21.7 9 Este 13 Sudoeste 0 -- -- 64
2019-08-16 07:00:00 22.3 8 Oeste 13 Oeste 0 -- -- 42
2019-08-16 06:00:00 24.9 6 Oeste 15 Oeste 0 -- -- 29
2019-08-16 05:00:00 23.9 4 Sur 11 Sudoeste 0 -- -- 37
2019-08-16 04:00:00 23.7 5 Oeste 15 Noroeste 0 -- -- 36
2019-08-16 03:00:00 24.4 7 Noroeste 17 Noroeste 0 -- -- 39
2019-08-16 02:00:00 23.2 9 Noroeste 22 Noroeste 0 -- -- 52
2019-08-16 01:00:00 23.8 7 Oeste 15 Noroeste 0 -- -- 44
2019-08-16 00:00:00 22.9 6 Oeste 26 Norte 0 -- -- 59
2019-08-15 23:00:00 25.7 12 Noroeste 28 Noroeste 0 -- -- 41
2019-08-15 22:00:00 25.4 14 Noroeste 32 Noroeste 0 -- -- 44
2019-08-15 21:00:00 24.7 15 Noroeste 34 Norte 0 -- -- 50
2019-08-15 20:00:00 24.4 7 Noroeste 31 Noroeste 0 -- -- 63
2019-08-15 19:00:00 24.7 22 Norte 32 Norte 0 -- -- 65
2019-08-15 18:00:00 26.9 8 Norte 35 Norte 0 -- -- 57
2019-08-15 17:00:00 26.8 17 Norte 31 Noroeste 0 -- -- 57
2019-08-15 16:00:00 27 12 Norte 33 Norte 0 -- -- 57
2019-08-15 15:00:00 28.4 18 Norte 34 Norte 0 -- -- 51
2019-08-15 14:00:00 28.5 23 Norte 37 Norte 0 -- -- 51
2019-08-15 13:00:00 26.3 26 Norte 35 Norte 0 -- -- 57
2019-08-15 12:00:00 26.7 16 Norte 32 Noroeste 0 -- -- 52
2019-08-15 11:00:00 27.9 17 Noroeste 30 Oeste 0 -- -- 36
2019-08-15 10:00:00 25.8 17 Norte 27 Norte 0 -- -- 41
2019-08-15 09:00:00 24.9 11 Norte 22 Noroeste 0 -- -- 35
2019-08-15 08:00:00 23 13 Noroeste 25 Noroeste 0 -- -- 37
2019-08-15 07:00:00 22.4 5 Noroeste 17 Norte 0 -- -- 39
2019-08-15 06:00:00 23.3 5 Oeste 21 Noroeste 0 -- -- 30
2019-08-15 05:00:00 23.1 16 Norte 22 Noroeste 0 -- -- 27
2019-08-15 04:00:00 23.3 14 Norte 22 Noroeste 0 -- -- 30
2019-08-15 03:00:00 22.6 13 Noroeste 23 Norte 0 -- -- 35
2019-08-15 02:00:00 21.8 12 Noroeste 27 Noroeste 0 -- -- 48
2019-08-15 01:00:00 21.2 19 Norte 27 Norte 0 -- -- 57
2019-08-15 00:00:00 21.8 16 Norte 25 Noroeste 0 -- -- 53
2019-08-14 23:00:00 22.6 8 Noroeste 23 Noroeste 0 -- -- 47
2019-08-14 22:00:00 24.6 7 Noroeste 20 Noroeste 0 -- -- 27
2019-08-14 21:00:00 24.8 10 Noroeste 25 Noroeste 0 -- -- 31
2019-08-14 20:00:00 26.1 13 Noroeste 24 Noroeste 0 -- -- 35
2019-08-14 19:00:00 26.8 15 Norte 28 Noroeste 0 -- -- 41
2019-08-14 18:00:00 27.3 18 Norte 31 Noroeste 0 -- -- 37
2019-08-14 17:00:00 28 16 Noroeste 32 Noroeste 0 -- -- 33
2019-08-14 16:00:00 28.3 16 Norte 32 Noroeste 0 -- -- 35
2019-08-14 15:00:00 28.3 18 Norte 32 Norte 0 -- -- 33
2019-08-14 14:00:00 28 16 Norte 31 Noroeste 0 -- -- 35
2019-08-14 13:00:00 27.2 20 Norte 31 Noroeste 0 -- -- 40
2019-08-14 12:00:00 25.6 18 Noroeste 33 Norte 0 -- -- 47
2019-08-14 11:00:00 25.3 15 Norte 26 Noroeste 0 -- -- 43
2019-08-14 10:00:00 25.1 17 Norte 31 Noroeste 0 -- -- 32
2019-08-14 09:00:00 23.4 14 Noroeste 23 Oeste 0 -- -- 33
2019-08-14 08:00:00 21 10 Noroeste 22 Norte 0 -- -- 34
2019-08-14 07:00:00 20.9 10 Noroeste 19 Noroeste 0 -- -- 35
2019-08-14 06:00:00 21.3 9 Noroeste 21 Noroeste 0 -- -- 33
2019-08-14 05:00:00 21.4 12 Noroeste 24 Noroeste 0 -- -- 36
2019-08-14 04:00:00 20.6 13 Noroeste 30 Noroeste 0 -- -- 42
2019-08-14 03:00:00 19.6 14 Noroeste 35 Noroeste 0 -- -- 59
2019-08-14 02:00:00 19.3 13 Noroeste 34 Noroeste 0 -- -- 64
2019-08-14 01:00:00 18.8 20 Noroeste 38 Oeste 0 -- -- 73
2019-08-14 00:00:00 19 24 Noroeste 42 Noroeste 0 -- -- 73
2019-08-13 23:00:00 19.7 23 Noroeste 40 Noroeste 0 -- -- 63
2019-08-13 22:00:00 20.3 21 Noroeste 41 Noroeste 0 -- -- 61
2019-08-13 21:00:00 20.5 22 Noroeste 40 Noroeste 0 -- -- 57
2019-08-13 20:00:00 21.5 21 Noroeste 46 Noroeste 0 -- -- 60
2019-08-13 19:00:00 22.1 28 Noroeste 51 Oeste 0 -- -- 64
2019-08-13 18:00:00 23.3 27 Norte 50 Noroeste 0 -- -- 56
2019-08-13 17:00:00 23.9 24 Noroeste 43 Noroeste 0 -- -- 56
2019-08-13 16:00:00 24.2 27 Norte 45 Noroeste 0 -- -- 55
2019-08-13 15:00:00 24.9 22 Norte 42 Norte 0 -- -- 52
2019-08-13 14:00:00 24.8 24 Norte 41 Noroeste 0 -- -- 52
2019-08-13 13:00:00 24.8 25 Norte 44 Noroeste 0 -- -- 45
2019-08-13 12:00:00 24.5 22 Noroeste 44 Noroeste 0 -- -- 46
2019-08-13 11:00:00 23.5 25 Noroeste 43 Noroeste 0 -- -- 47
2019-08-13 10:00:00 22.3 21 Noroeste 43 Noroeste 0 -- -- 56
2019-08-13 09:00:00 21.4 21 Noroeste 35 Noroeste 0 -- -- 52
2019-08-13 08:00:00 20.3 18 Noroeste 44 Noroeste 0 -- -- 52
2019-08-13 07:00:00 20.6 15 Noroeste 36 Noroeste 0 -- -- 43
2019-08-13 06:00:00 19.8 17 Noroeste 40 Oeste 0 -- -- 58
2019-08-13 05:00:00 19.8 18 Oeste 44 Noroeste 0 -- -- 63
2019-08-13 04:00:00 20.1 21 Noroeste 39 Norte 0 -- -- 62
2019-08-13 03:00:00 21.4 20 Norte 34 Noroeste 0 -- -- 44
2019-08-13 02:00:00 23.1 15 Noroeste 34 Noroeste 0 -- -- 26
2019-08-13 01:00:00 23.5 13 Noroeste 35 Noroeste 0 -- -- 21
2019-08-13 00:00:00 23.4 19 Noroeste 41 Oeste 0 -- -- 26
2019-08-12 23:00:00 23.2 19 Noroeste 45 Noroeste 0 -- -- 25
2019-08-12 22:00:00 23 23 Noroeste 51 Oeste 0 -- -- 31
2019-08-12 21:00:00 22.6 21 Noroeste 42 Noroeste 0 -- -- 38
2019-08-12 20:00:00 23.8 18 Noroeste 48 Noroeste 0 -- -- 38
2019-08-12 19:00:00 24.1 23 Noroeste 41 Noroeste 0 -- -- 46
2019-08-12 18:00:00 25.2 24 Noroeste 43 Noroeste 0 -- -- 45
2019-08-12 17:00:00 25.5 22 Noroeste 44 Norte 0 -- -- 46
2019-08-12 16:00:00 24.8 26 Noroeste 46 Norte 0 -- -- 53
2019-08-12 15:00:00 25.2 23 Noroeste 42 Norte 0 -- -- 52
2019-08-12 14:00:00 25.3 22 Noroeste 44 Noroeste 0 -- -- 53
2019-08-12 13:00:00 24.5 22 Noroeste 46 Noroeste 0 -- -- 56
2019-08-12 12:00:00 24.2 25 Noroeste 49 Noroeste 0 -- -- 56
2019-08-12 11:00:00 23.7 21 Noroeste 42 Noroeste 0 -- -- 56
2019-08-12 10:00:00 23.4 19 Noroeste 41 Noroeste 0 -- -- 54
2019-08-12 09:00:00 22.4 20 Oeste 42 Oeste 0 -- -- 55
2019-08-12 08:00:00 20.5 18 Noroeste 39 Noroeste 0 -- -- 68
2019-08-12 07:00:00 20.6 15 Noroeste 41 Noroeste 0 -- -- 66
2019-08-12 06:00:00 20.8 15 Noroeste 36 Norte 0 -- -- 64
2019-08-12 05:00:00 21.7 14 Noroeste 37 Noroeste 0 -- -- 54
2019-08-12 04:00:00 21.8 16 Noroeste 43 Oeste 0 -- -- 54
2019-08-12 03:00:00 20.9 14 Noroeste 39 Noroeste 0 -- -- 59
2019-08-12 02:00:00 22 14 Noroeste 36 Noroeste 0 -- -- 44
2019-08-12 01:00:00 22.6 17 Oeste 40 Oeste 0 -- -- 36
2019-08-12 00:00:00 22.4 15 Noroeste 37 Noroeste 0 -- -- 32
2019-08-11 23:00:00 21.3 19 Noroeste 42 Noroeste 0 -- -- 45
2019-08-11 22:00:00 20.1 22 Noroeste 40 Noroeste 0 -- -- 72
2019-08-11 21:00:00 20.3 23 Noroeste 40 Noroeste 0 -- -- 74
2019-08-11 20:00:00 21.3 27 Noroeste 44 Noroeste 0 -- -- 68
2019-08-11 19:00:00 22.7 27 Noroeste 43 Noroeste 0 -- -- 63
2019-08-11 18:00:00 23.3 24 Noroeste 43 Norte 0 -- -- 61
2019-08-11 17:00:00 23.9 24 Noroeste 44 Norte 0 -- -- 60
2019-08-11 16:00:00 24 29 Norte 42 Noroeste 0 -- -- 61
2019-08-11 15:00:00 23.5 29 Noroeste 43 Noroeste 0 -- -- 68
2019-08-11 14:00:00 24.2 26 Norte 41 Norte 0 -- -- 68
2019-08-11 13:00:00 24.8 25 Norte 47 Norte 0 -- -- 68
2019-08-11 12:00:00 23.7 23 Noroeste 42 Noroeste 0 -- -- 68
2019-08-11 11:00:00 22.2 25 Noroeste 44 Noroeste 0 -- -- 75
2019-08-11 10:00:00 21.5 22 Noroeste 40 Noroeste 0 -- -- 80
2019-08-11 09:00:00 21.4 23 Noroeste 42 Oeste 0 -- -- 82
2019-08-11 08:00:00 20.8 23 Noroeste 39 Noroeste 0 -- -- 87
2019-08-11 07:00:00 20.8 23 Noroeste 40 Noroeste 0 -- -- 88
2019-08-11 06:00:00 21.3 16 Noroeste 35 Oeste 0 -- -- 85
2019-08-11 05:00:00 21.1 21 Oeste 38 Oeste 0 -- -- 87
2019-08-11 04:00:00 20.9 18 Noroeste 36 Oeste 0 -- -- 88
2019-08-11 03:00:00 21 14 Noroeste 33 Noroeste 0 -- -- 88
2019-08-11 02:00:00 21.3 19 Noroeste 36 Noroeste 0 -- -- 86
2019-08-11 01:00:00 22.2 20 Noroeste 44 Noroeste 0 -- -- 77
2019-08-11 00:00:00 22.4 21 Noroeste 50 Noroeste 0 -- -- 76
2019-08-10 23:00:00 22 20 Noroeste 42 Noroeste 0 -- -- 76
2019-08-10 22:00:00 23 20 Norte 31 Noroeste 0 -- -- 68
2019-08-10 21:00:00 24.4 19 Noroeste 37 Noroeste 0 -- -- 57
2019-08-10 20:00:00 26 20 Noroeste 32 Norte 0 -- -- 55
2019-08-10 19:00:00 26.2 18 Norte 38 Norte 0 -- -- 60
2019-08-10 18:00:00 27 19 Norte 38 Norte 0 -- -- 54
2019-08-10 17:00:00 27.4 21 Norte 34 Norte 0 -- -- 57
2019-08-10 16:00:00 27.1 20 Noroeste 33 Norte 0 -- -- 57
2019-08-10 15:00:00 27.2 19 Norte 37 Norte 0 -- -- 60
2019-08-10 14:00:00 27.1 26 Norte 37 Norte 0 -- -- 58
2019-08-10 13:00:00 27.6 23 Norte 33 Norte 0 -- -- 51
2019-08-10 12:00:00 27.9 19 Norte 35 Norte 0 -- -- 48
2019-08-10 11:00:00 28.3 15 Norte 26 Nordeste 0 -- -- 39
2019-08-10 10:00:00 26.5 16 Norte 27 Norte 0 -- -- 41
2019-08-10 09:00:00 25.3 16 Norte 33 Norte 0 -- -- 48
2019-08-10 08:00:00 24 16 Noroeste 30 Noroeste 0 -- -- 45
2019-08-10 07:00:00 23.8 13 Noroeste 28 Norte 0 -- -- 39
2019-08-10 06:00:00 23.8 18 Noroeste 36 Noroeste 0 -- -- 42
2019-08-10 05:00:00 23.5 15 Noroeste 37 Noroeste 0 -- -- 37
2019-08-10 04:00:00 23.4 17 Noroeste 32 Noroeste 0 -- -- 38
2019-08-10 03:00:00 23.8 20 Noroeste 30 Noroeste 0 -- -- 36
2019-08-10 02:00:00 24.2 12 Noroeste 25 Noroeste 0 -- -- 37
2019-08-10 01:00:00 24.3 8 Noroeste 21 Noroeste 0 -- -- 38
2019-08-10 00:00:00 23.7 7 Noroeste 18 Noroeste 0 -- -- 38
2019-08-09 23:00:00 21.8 6 Sudeste 10 Sudeste 0 -- -- 67
2019-08-09 22:00:00 22.3 5 Sudeste 18 Norte 0 -- -- 60
2019-08-09 21:00:00 22.9 10 Noroeste 23 Noroeste 0 -- -- 64
2019-08-09 20:00:00 25.4 4 Noroeste 17 Nordeste 0 -- -- 56
2019-08-09 19:00:00 25.4 13 Este 21 Este 0 -- -- 64
2019-08-09 18:00:00 25.7 13 Nordeste 22 Este 0 -- -- 64
2019-08-09 17:00:00 25.9 13 Este 20 Este 0 -- -- 64
2019-08-09 16:00:00 25.5 14 Este 22 Este 0 -- -- 66
2019-08-09 15:00:00 26.3 13 Este 24 Este 0 -- -- 64
2019-08-09 14:00:00 25.4 8 Este 22 Este 0 -- -- 65
2019-08-09 13:00:00 24.3 13 Este 24 Este 0 -- -- 70
2019-08-09 12:00:00 24 12 Este 24 Este 0 -- -- 70
2019-08-09 11:00:00 24.6 13 Este 26 Nordeste 0 -- -- 65
2019-08-09 10:00:00 25.8 7 Nordeste 21 Norte 0 -- -- 51
2019-08-09 09:00:00 20.5 6 Oeste 10 Sudoeste 0 -- -- 69
2019-08-09 08:00:00 18.4 3 Sur 9 Sudeste 0 -- -- 85
2019-08-09 07:00:00 18.2 5 Sudoeste 8 Norte 0 -- -- 83
2019-08-09 06:00:00 18.8 3 Noroeste 16 Norte 0 -- -- 83
2019-08-09 05:00:00 18.8 4 Oeste 14 Noroeste 0 -- -- 83
2019-08-09 04:00:00 18.9 5 Oeste 10 Oeste 0 -- -- 84
2019-08-09 03:00:00 19.2 2 Sudoeste 10 Sudeste 0 -- -- 86
2019-08-09 02:00:00 19.4 5 Oeste 8 Sudoeste 0 -- -- 86
2019-08-09 01:00:00 19.7 3 Norte 11 Norte 0 -- -- 85
2019-08-09 00:00:00 20 3 Oeste 15 Noroeste 0 -- -- 86
2019-08-08 23:00:00 20.3 3 Norte 13 Norte 0 -- -- 85
2019-08-08 22:00:00 20.7 4 Oeste 11 Noroeste 0 -- -- 83
2019-08-08 21:00:00 21.1 3 Sudeste 15 Este 0 -- -- 81
2019-08-08 20:00:00 21.8 8 Sudeste 13 Este 0 -- -- 79
2019-08-08 19:00:00 23.2 9 Este 18 Sudeste 0 -- -- 74
2019-08-08 18:00:00 24.4 11 Este 18 Este 0 -- -- 69
2019-08-08 17:00:00 24 12 Este 23 Este 0 -- -- 71
2019-08-08 16:00:00 24.6 12 Este 23 Este 0 -- -- 69
2019-08-08 15:00:00 24.1 13 Este 26 Este 0 -- -- 71
2019-08-08 14:00:00 24 12 Este 26 Este 0 -- -- 70
2019-08-08 13:00:00 24.5 10 Nordeste 23 Este 0 -- -- 68
2019-08-08 12:00:00 23.9 11 Este 22 Este 0 -- -- 69
2019-08-08 11:00:00 25 11 Nordeste 21 Nordeste 0 -- -- 64
2019-08-08 10:00:00 22.5 5 Norte 10 Norte 0 -- -- 67
2019-08-08 09:00:00 19.6 3 Sudeste 12 Oeste 0 -- -- 76
2019-08-08 08:00:00 17 5 Sudoeste 18 Noroeste 0 -- -- 77
2019-08-08 07:00:00 17.1 3 Sudoeste 15 Oeste 0 -- -- 79
2019-08-08 06:00:00 17.7 3 Noroeste 13 Noroeste 0 -- -- 85
2019-08-08 05:00:00 18.2 3 Norte 12 Oeste 0 -- -- 85
2019-08-08 04:00:00 18.2 4 Oeste 13 Noroeste 0 -- -- 83
2019-08-08 03:00:00 18.6 5 Oeste 12 Noroeste 0 -- -- 80
2019-08-08 02:00:00 19 7 Oeste 18 Norte 0 -- -- 80
2019-08-08 01:00:00 19.4 9 Noroeste 27 Noroeste 0 -- -- 81
2019-08-08 00:00:00 19.5 14 Noroeste 28 Noroeste 0 -- -- 81
2019-08-07 23:00:00 19.7 15 Noroeste 24 Norte 0 -- -- 81
2019-08-07 22:00:00 20 12 Norte 30 Norte 0 -- -- 80
2019-08-07 21:00:00 20.8 16 Noroeste 28 Noroeste 0 -- -- 77
2019-08-07 20:00:00 22.5 16 Noroeste 32 Noroeste 0 -- -- 69
2019-08-07 19:00:00 23.7 18 Norte 30 Norte 0 -- -- 67
2019-08-07 18:00:00 25.2 18 Norte 30 Norte 0 -- -- 62
2019-08-07 17:00:00 25.3 13 Norte 32 Este 0 -- -- 62
2019-08-07 16:00:00 24.7 15 Nordeste 32 Norte 0 -- -- 63
2019-08-07 15:00:00 24.7 17 Nordeste 33 Nordeste 0 -- -- 64
2019-08-07 14:00:00 25.7 13 Nordeste 28 Nordeste 0 -- -- 58
2019-08-07 13:00:00 25 16 Nordeste 30 Noroeste 0 -- -- 61
2019-08-07 12:00:00 24.2 17 Norte 32 Norte 0 -- -- 60
2019-08-07 11:00:00 23 15 Norte 33 Norte 0 -- -- 68
2019-08-07 10:00:00 21 18 Noroeste 37 Noroeste 0 -- -- 76
2019-08-07 09:00:00 20 17 Noroeste 34 Noroeste 0 -- -- 77
2019-08-07 08:00:00 18.9 15 Noroeste 33 Noroeste 0 -- -- 80
2019-08-07 07:00:00 19 18 Noroeste 33 Noroeste 0 -- -- 78
2019-08-07 06:00:00 19.1 21 Noroeste 41 Noroeste 0 -- -- 79
2019-08-07 05:00:00 19.3 18 Noroeste 31 Noroeste 0 -- -- 75
2019-08-07 04:00:00 19.6 17 Noroeste 34 Noroeste 0 -- -- 74
2019-08-07 03:00:00 19.4 14 Oeste 35 Noroeste 0 -- -- 74
2019-08-07 02:00:00 19.6 17 Noroeste 35 Noroeste 0 -- -- 74
2019-08-07 01:00:00 19.8 22 Noroeste 37 Noroeste 0 -- -- 76
2019-08-07 00:00:00 20 18 Noroeste 40 Oeste 0 -- -- 72
2019-08-06 23:00:00 20.3 14 Noroeste 36 Noroeste 0 -- -- 69
2019-08-06 22:00:00 20.5 16 Noroeste 50 Noroeste 0 -- -- 71
2019-08-06 21:00:00 20.7 18 Noroeste 46 Noroeste 0 -- -- 71
2019-08-06 20:00:00 22.1 17 Noroeste 40 Norte 0 -- -- 65
2019-08-06 19:00:00 22.9 23 Noroeste 49 Noroeste 0 -- -- 66
2019-08-06 18:00:00 23.9 26 Noroeste 53 Noroeste 0 -- -- 59
2019-08-06 17:00:00 24.3 29 Noroeste 56 Noroeste 0 -- -- 60
2019-08-06 16:00:00 25 32 Noroeste 51 Noroeste 0 -- -- 59
2019-08-06 15:00:00 25.4 29 Norte 57 Norte 0 -- -- 58
2019-08-06 14:00:00 25.7 25 Norte 42 Norte 0 -- -- 57
2019-08-06 13:00:00 25.1 26 Norte 44 Norte 0 -- -- 57
2019-08-06 12:00:00 24 26 Norte 40 Norte 0 -- -- 61
2019-08-06 11:00:00 23.1 22 Norte 42 Noroeste 0 -- -- 65
2019-08-06 10:00:00 21.5 17 Noroeste 38 Noroeste 0 -- -- 68
2019-08-06 09:00:00 20.4 19 Noroeste 35 Noroeste 0 -- -- 73
2019-08-06 08:00:00 19.5 21 Noroeste 36 Noroeste 0 -- -- 75
2019-08-06 07:00:00 19.8 17 Noroeste 41 Noroeste 0 -- -- 73
2019-08-06 06:00:00 19.9 19 Noroeste 40 Noroeste 0 -- -- 73
2019-08-06 05:00:00 20.1 21 Noroeste 48 Oeste 0 -- -- 75
2019-08-06 04:00:00 20.1 19 Noroeste 34 Oeste 0 -- -- 74
2019-08-06 03:00:00 20.4 18 Oeste 39 Noroeste 0 -- -- 73
2019-08-06 02:00:00 20.5 15 Noroeste 38 Noroeste 0 -- -- 74
2019-08-06 01:00:00 20.8 21 Noroeste 35 Oeste 0 -- -- 70
2019-08-06 00:00:00 21.6 19 Oeste 38 Oeste 0 -- -- 62
2019-08-05 23:00:00 20.6 21 Noroeste 39 Noroeste 0 -- -- 72
2019-08-05 22:00:00 20.6 14 Noroeste 36 Oeste 0 -- -- 74
2019-08-05 21:00:00 20.9 22 Noroeste 41 Norte 0 -- -- 73
2019-08-05 20:00:00 22.4 22 Noroeste 36 Noroeste 0 -- -- 67
2019-08-05 19:00:00 23.6 21 Noroeste 40 Norte 0 -- -- 63
2019-08-05 18:00:00 24.6 21 Noroeste 40 Norte 0 -- -- 62
2019-08-05 17:00:00 25.1 23 Norte 37 Noroeste 0 -- -- 58
2019-08-05 16:00:00 25.8 22 Noroeste 34 Norte 0 -- -- 56
2019-08-05 15:00:00 26.3 19 Noroeste 36 Noroeste 0 -- -- 51
2019-08-05 14:00:00 25.6 18 Norte 38 Norte 0 -- -- 53
2019-08-05 13:00:00 24.7 18 Norte 39 Norte 0 -- -- 59
2019-08-05 12:00:00 24.8 20 Norte 35 Noroeste 0 -- -- 57
2019-08-05 11:00:00 23.3 22 Norte 39 Noroeste 0 -- -- 65
2019-08-05 10:00:00 21.8 19 Noroeste 37 Noroeste 0 -- -- 67
2019-08-05 09:00:00 20.5 24 Oeste 40 Noroeste 0 -- -- 71
2019-08-05 08:00:00 20.1 20 Oeste 36 Noroeste 0 -- -- 71
2019-08-05 07:00:00 19.9 18 Noroeste 36 Noroeste 0 -- -- 73
2019-08-05 06:00:00 19.9 20 Noroeste 37 Noroeste 0 -- -- 77
2019-08-05 05:00:00 19.8 21 Noroeste 36 Noroeste 0 -- -- 77
2019-08-05 04:00:00 20.6 18 Noroeste 39 Oeste 0 -- -- 72
2019-08-05 03:00:00 20.1 14 Oeste 36 Oeste 0 -- -- 68
2019-08-05 02:00:00 19.9 22 Noroeste 32 Noroeste 0 -- -- 73
2019-08-05 01:00:00 19.8 17 Noroeste 35 Oeste 0 -- -- 72
2019-08-05 00:00:00 19.7 16 Noroeste 34 Noroeste 0 -- -- 76
2019-08-04 23:00:00 20.4 17 Noroeste 31 Noroeste 0 -- -- 70
2019-08-04 22:00:00 20.2 21 Noroeste 37 Oeste 0 -- -- 71
2019-08-04 21:00:00 20.2 16 Noroeste 38 Noroeste 0 -- -- 69
2019-08-04 20:00:00 21.4 22 Noroeste 44 Noroeste 0 -- -- 68
2019-08-04 19:00:00 22.7 23 Noroeste 40 Noroeste 0 -- -- 62
2019-08-04 18:00:00 23.7 20 Norte 42 Norte 0 -- -- 60
2019-08-04 17:00:00 24.2 21 Norte 42 Norte 0 -- -- 57
2019-08-04 16:00:00 24.4 21 Noroeste 39 Noroeste 0 -- -- 55
2019-08-04 15:00:00 24 25 Norte 46 Noroeste 0 -- -- 60
2019-08-04 14:00:00 24 22 Noroeste 42 Noroeste 0 -- -- 58
2019-08-04 13:00:00 23.9 22 Norte 42 Norte 0 -- -- 57
2019-08-04 12:00:00 23.5 17 Noroeste 40 Noroeste 0 -- -- 58
2019-08-04 11:00:00 22.2 23 Norte 34 Noroeste 0 -- -- 63
2019-08-04 10:00:00 20.7 15 Noroeste 32 Noroeste 0 -- -- 68
2019-08-04 09:00:00 19.6 18 Noroeste 38 Noroeste 0 -- -- 70
2019-08-04 08:00:00 18.7 14 Oeste 29 Noroeste 0 -- -- 72
2019-08-04 07:00:00 18.4 17 Noroeste 33 Noroeste 0 -- -- 79
2019-08-04 06:00:00 18.2 17 Noroeste 38 Oeste 0 -- -- 75
2019-08-04 05:00:00 18 14 Noroeste 34 Noroeste 0 -- -- 76
2019-08-04 04:00:00 18.1 23 Noroeste 37 Noroeste 0 -- -- 75
2019-08-04 03:00:00 18.2 22 Noroeste 35 Noroeste 0 -- -- 75
2019-08-04 02:00:00 18.3 19 Noroeste 37 Noroeste 0 -- -- 76
2019-08-04 01:00:00 18.5 24 Norte 33 Noroeste 0 -- -- 73
2019-08-04 00:00:00 18.7 18 Noroeste 37 Noroeste 0 -- -- 73
2019-08-03 23:00:00 19.1 24 Noroeste 42 Noroeste 0 -- -- 72
2019-08-03 22:00:00 19.2 24 Noroeste 42 Noroeste 0 -- -- 71
2019-08-03 21:00:00 19.5 16 Norte 31 Norte 0 -- -- 74
2019-08-03 20:00:00 21.7 16 Norte 36 Norte 0 -- -- 66
2019-08-03 19:00:00 22.2 20 Noroeste 46 Norte 0 -- -- 63
2019-08-03 18:00:00 23.6 21 Norte 39 Noroeste 0 -- -- 58
2019-08-03 17:00:00 23.6 23 Norte 42 Norte 0 -- -- 59
2019-08-03 16:00:00 23.1 23 Noroeste 43 Norte 0 -- -- 60
2019-08-03 15:00:00 23.3 25 Norte 44 Noroeste 0 -- -- 61
2019-08-03 14:00:00 23.4 27 Norte 41 Norte 0 -- -- 61
2019-08-03 13:00:00 22.7 27 Norte 43 Norte 0 -- -- 64
2019-08-03 12:00:00 22.3 27 Norte 40 Norte 0 -- -- 66
2019-08-03 11:00:00 22.1 23 Norte 43 Noroeste 0 -- -- 66
2019-08-03 10:00:00 20.5 30 Noroeste 43 Noroeste 0 -- -- 71
2019-08-03 09:00:00 19.1 27 Noroeste 41 Noroeste 0 -- -- 76
2019-08-03 08:00:00 18.1 16 Noroeste 35 Noroeste 0 -- -- 78
2019-08-03 07:00:00 18 16 Noroeste 33 Norte 0 -- -- 79
2019-08-03 06:00:00 18 16 Noroeste 31 Noroeste 0 -- -- 79
2019-08-03 05:00:00 18.4 19 Noroeste 33 Norte 0 -- -- 78
2019-08-03 04:00:00 18.5 15 Noroeste 34 Noroeste 0 -- -- 78
2019-08-03 03:00:00 18.8 14 Noroeste 30 Noroeste 0 -- -- 76
2019-08-03 02:00:00 18.5 18 Noroeste 33 Noroeste 0 -- -- 78
2019-08-03 01:00:00 19.2 20 Noroeste 35 Noroeste 0 -- -- 75
2019-08-03 00:00:00 19.1 22 Noroeste 35 Noroeste 0 -- -- 76
2019-08-02 23:00:00 19.3 19 Noroeste 37 Noroeste 0 -- -- 75
2019-08-02 22:00:00 19.3 27 Noroeste 44 Noroeste 0 -- -- 76
2019-08-02 21:00:00 19.6 22 Noroeste 38 Noroeste 0 -- -- 74
2019-08-02 20:00:00 21.2 22 Noroeste 40 Norte 0 -- -- 67
2019-08-02 19:00:00 22.5 19 Norte 39 Norte 0 -- -- 64
2019-08-02 18:00:00 23.5 24 Norte 45 Noroeste 0 -- -- 63
2019-08-02 17:00:00 24.3 26 Norte 39 Norte 0 -- -- 58
2019-08-02 16:00:00 24.6 24 Norte 37 Norte 0 -- -- 56
2019-08-02 15:00:00 24.5 21 Noroeste 40 Noroeste 0 -- -- 57
2019-08-02 14:00:00 24.2 19 Noroeste 37 Norte 0 -- -- 56
2019-08-02 13:00:00 23.8 19 Norte 44 Noroeste 0 -- -- 58
2019-08-02 12:00:00 23.1 20 Norte 35 Noroeste 0 -- -- 61
2019-08-02 11:00:00 21.9 15 Noroeste 35 Noroeste 0 -- -- 65
2019-08-02 10:00:00 20.4 17 Noroeste 41 Noroeste 0 -- -- 69
2019-08-02 09:00:00 19.6 15 Noroeste 29 Norte 0 -- -- 75
2019-08-02 08:00:00 18.3 13 Noroeste 30 Noroeste 0 -- -- 78
2019-08-02 07:00:00 19 14 Noroeste 32 Oeste 0 -- -- 76
2019-08-02 06:00:00 18.7 19 Oeste 32 Noroeste 0 -- -- 74
2019-08-02 05:00:00 18.6 17 Oeste 32 Oeste 0 -- -- 75
2019-08-02 04:00:00 18.4 13 Noroeste 38 Noroeste 0 -- -- 77
2019-08-02 03:00:00 18.3 18 Noroeste 31 Noroeste 0 -- -- 76
2019-08-02 02:00:00 18.3 13 Noroeste 39 Oeste 0 -- -- 78
2019-08-02 01:00:00 18.8 21 Noroeste 39 Oeste 0 -- -- 75
2019-08-02 00:00:00 18.7 15 Noroeste 42 Noroeste 0 -- -- 75
2019-08-01 23:00:00 18.7 21 Noroeste 42 Noroeste 0 -- -- 73
2019-08-01 22:00:00 19.1 20 Noroeste 39 Noroeste 0 -- -- 73
2019-08-01 21:00:00 19.4 18 Noroeste 40 Norte 0 -- -- 72
2019-08-01 20:00:00 20.7 25 Noroeste 42 Noroeste 0 -- -- 67
2019-08-01 19:00:00 22.3 19 Noroeste 43 Norte 0 -- -- 61
2019-08-01 18:00:00 23.2 22 Norte 43 Norte 0 -- -- 58
2019-08-01 17:00:00 23.7 22 Norte 39 Noroeste 0 -- -- 57
2019-08-01 16:00:00 24 23 Norte 45 Norte 0 -- -- 58
2019-08-01 15:00:00 24.1 23 Norte 41 Norte 0 -- -- 54
2019-08-01 14:00:00 23.5 24 Norte 42 Noroeste 0 -- -- 57
2019-08-01 13:00:00 22.3 27 Noroeste 42 Noroeste 0 -- -- 62
2019-08-01 12:00:00 22.9 17 Norte 37 Noroeste 0 -- -- 59
2019-08-01 11:00:00 21.4 23 Noroeste 34 Noroeste 0 -- -- 66
2019-08-01 10:00:00 21.1 15 Noroeste 33 Noroeste 0 -- -- 64
2019-08-01 09:00:00 19.3 17 Noroeste 37 Oeste 0 -- -- 70
2019-08-01 08:00:00 18.4 17 Noroeste 35 Oeste 0 -- -- 73
2019-08-01 07:00:00 18.6 18 Oeste 37 Noroeste 0 -- -- 71
2019-08-01 06:00:00 18.4 14 Noroeste 35 Noroeste 0 -- -- 71
2019-08-01 05:00:00 18.1 14 Oeste 39 Oeste 0 -- -- 72
2019-08-01 04:00:00 18.2 17 Noroeste 39 Noroeste 0 -- -- 73
2019-08-01 03:00:00 18.2 18 Oeste 38 Noroeste 0 -- -- 71
2019-08-01 02:00:00 18.6 19 Oeste 47 Oeste 0 -- -- 70
2019-08-01 01:00:00 18.7 17 Noroeste 35 Noroeste 0 -- -- 72
2019-08-01 00:00:00 18.5 26 Noroeste 42 Noroeste 0 -- -- 76
2019-07-31 23:00:00 18.7 15 Noroeste 41 Noroeste 0 -- -- 70
2019-07-31 22:00:00 18.8 24 Noroeste 46 Noroeste 0 -- -- 73
2019-07-31 21:00:00 19.1 22 Noroeste 42 Noroeste 0 -- -- 68
2019-07-31 20:00:00 20.5 21 Noroeste 45 Norte 0 -- -- 64
2019-07-31 19:00:00 21.4 28 Noroeste 46 Noroeste 0 -- -- 63
2019-07-31 18:00:00 22.1 26 Noroeste 48 Noroeste 0 -- -- 57
2019-07-31 17:00:00 22.7 28 Norte 49 Norte 0 -- -- 56
2019-07-31 16:00:00 23 27 Noroeste 49 Noroeste 0 -- -- 55
2019-07-31 15:00:00 22.6 25 Noroeste 49 Noroeste 0 -- -- 58
2019-07-31 14:00:00 23.1 26 Norte 43 Noroeste 0 -- -- 56
2019-07-31 13:00:00 22.8 19 Noroeste 45 Noroeste 0 -- -- 57
2019-07-31 12:00:00 21.9 19 Noroeste 54 Noroeste 0 -- -- 57
2019-07-31 11:00:00 19.8 23 Noroeste 46 Noroeste 0 -- -- 67
2019-07-31 10:00:00 19.2 24 Noroeste 42 Noroeste 0 -- -- 69
2019-07-31 09:00:00 19.2 23 Noroeste 44 Noroeste 0 -- -- 66
2019-07-31 08:00:00 18.3 19 Oeste 46 Oeste 0 -- -- 69
2019-07-31 07:00:00 18.3 21 Noroeste 44 Noroeste 0 -- -- 72
2019-07-31 06:00:00 18.3 19 Oeste 43 Oeste 0 -- -- 70
2019-07-31 05:00:00 18.3 22 Noroeste 44 Noroeste 0 -- -- 70
2019-07-31 04:00:00 18.4 21 Noroeste 45 Noroeste 0 -- -- 74
2019-07-31 03:00:00 18.6 27 Noroeste 45 Noroeste 0 -- -- 77
2019-07-31 02:00:00 18.6 23 Noroeste 48 Oeste 0 -- -- 75
2019-07-31 01:00:00 18.3 19 Noroeste 44 Oeste 0 -- -- 75
2019-07-31 00:00:00 18.6 21 Noroeste 58 Noroeste 0 -- -- 75
2019-07-30 23:00:00 19.1 21 Noroeste 44 Oeste 0 -- -- 72
2019-07-30 22:00:00 18.8 22 Noroeste 42 Noroeste 0 -- -- 76
2019-07-30 21:00:00 19.4 22 Noroeste 44 Noroeste 0 -- -- 75
2019-07-30 20:00:00 19.6 19 Noroeste 43 Noroeste 0 -- -- 72
2019-07-30 19:00:00 20.5 17 Noroeste 46 Noroeste 0 -- -- 70
2019-07-30 18:00:00 20 30 Noroeste 47 Noroeste 0 -- -- 72
2019-07-30 17:00:00 21.5 18 Noroeste 45 Noroeste 0 -- -- 67
2019-07-30 16:00:00 20.6 21 Noroeste 46 Noroeste 0 -- -- 71
2019-07-30 15:00:00 20.4 19 Noroeste 44 Noroeste 0 -- -- 74
2019-07-30 14:00:00 21.2 26 Noroeste 46 Noroeste 0 -- -- 70
2019-07-30 13:00:00 20.3 28 Noroeste 44 Noroeste 0 -- -- 72
2019-07-30 12:00:00 19.4 24 Noroeste 43 Noroeste 0 -- -- 82
2019-07-30 11:00:00 19.1 17 Noroeste 46 Noroeste 0 -- -- 85
2019-07-30 10:00:00 18.8 18 Noroeste 42 Noroeste 0.2 -- -- 86
2019-07-30 09:00:00 19.1 22 Noroeste 44 Noroeste 0 -- -- 84
2019-07-30 08:00:00 18.9 25 Noroeste 45 Noroeste 0 -- -- 84
2019-07-30 07:00:00 19.6 20 Noroeste 50 Noroeste 0 -- -- 84
2019-07-30 06:00:00 20.5 18 Oeste 42 Noroeste 0 -- -- 72
2019-07-30 05:00:00 20.1 22 Noroeste 43 Noroeste 0 -- -- 75
2019-07-30 04:00:00 20.2 19 Noroeste 44 Noroeste 0 -- -- 76
2019-07-30 03:00:00 20.5 18 Noroeste 44 Noroeste 0 -- -- 73
2019-07-30 02:00:00 20.5 17 Noroeste 45 Noroeste 0 -- -- 75
2019-07-30 01:00:00 20.6 23 Noroeste 39 Noroeste 0 -- -- 75
2019-07-30 00:00:00 20.5 21 Oeste 41 Oeste 0 -- -- 77
2019-07-29 23:00:00 20.8 17 Noroeste 54 Noroeste 0 -- -- 72
2019-07-29 22:00:00 20.7 18 Noroeste 47 Oeste 0 -- -- 70
2019-07-29 21:00:00 20.4 23 Noroeste 44 Noroeste 0 -- -- 71
2019-07-29 20:00:00 21.1 23 Noroeste 40 Noroeste 0 -- -- 68
2019-07-29 19:00:00 22.3 22 Noroeste 54 Noroeste 0 -- -- 62
2019-07-29 18:00:00 23.2 24 Noroeste 46 Noroeste 0 -- -- 58
2019-07-29 17:00:00 23.9 21 Noroeste 42 Norte 0 -- -- 58
2019-07-29 16:00:00 24.5 25 Noroeste 44 Norte 0 -- -- 55
2019-07-29 15:00:00 24.6 25 Norte 46 Noroeste 0 -- -- 54
2019-07-29 14:00:00 23.3 25 Noroeste -- -- -- -- -- 57
2019-07-29 13:00:00 -- -- -- -- -- -- -- -- --
2019-07-29 12:00:00 -- 24 Noroeste 43 Norte 0 -- -- --
2019-07-29 11:00:00 21.2 27 Noroeste 46 Noroeste 0 -- -- 64
2019-07-29 10:00:00 20.1 23 Noroeste 44 Noroeste 0 -- -- 69
2019-07-29 09:00:00 19.6 17 Noroeste 40 Oeste 0 -- -- 72
2019-07-29 08:00:00 19.4 12 Oeste 32 Oeste 0 -- -- 73
2019-07-29 07:00:00 19 19 Noroeste 39 Noroeste 0 -- -- 74
2019-07-29 06:00:00 18.9 21 Noroeste 40 Noroeste 0 -- -- 75
2019-07-29 05:00:00 19 18 Noroeste 40 Noroeste 0 -- -- 76
2019-07-29 04:00:00 19 17 Noroeste 44 Noroeste 0 -- -- 76
2019-07-29 03:00:00 19.2 21 Noroeste 41 Noroeste 0 -- -- 76
2019-07-29 02:00:00 19.5 20 Noroeste 41 Noroeste 0 -- -- 75
2019-07-29 01:00:00 19.4 24 Noroeste 43 Noroeste 0 -- -- 74
2019-07-29 00:00:00 19.5 22 Noroeste 40 Noroeste 0 -- -- 74
2019-07-28 23:00:00 19.6 26 Noroeste 45 Noroeste 0 -- -- 76
2019-07-28 22:00:00 19.9 24 Noroeste 49 Noroeste 0 -- -- 73
2019-07-28 21:00:00 20.1 20 Noroeste 42 Noroeste 0 -- -- 74
2019-07-28 20:00:00 22 20 Noroeste 42 Noroeste 0 -- -- 69
2019-07-28 19:00:00 22.5 23 Noroeste 46 Noroeste 0 -- -- 67
2019-07-28 18:00:00 23.4 29 Noroeste 49 Norte 0 -- -- 67
2019-07-28 17:00:00 23.5 30 Norte 48 Noroeste 0 -- -- 68
2019-07-28 16:00:00 24.1 26 Norte 45 Noroeste 0 -- -- 69
2019-07-28 15:00:00 24.5 23 Norte 45 Noroeste 0 -- -- 69
2019-07-28 14:00:00 23.8 24 Noroeste 46 Noroeste 0 -- -- 74
2019-07-28 13:00:00 24.3 22 Noroeste 44 Oeste 0 -- -- 69
2019-07-28 12:00:00 24 27 Noroeste 40 Noroeste 0 -- -- 70
2019-07-28 11:00:00 21.2 19 Noroeste 36 Oeste 0 -- -- 82
2019-07-28 10:00:00 21.4 18 Noroeste 37 Noroeste 0 -- -- 80
2019-07-28 09:00:00 20.5 17 Oeste 37 Noroeste 0 -- -- 80
2019-07-28 08:00:00 19.7 22 Oeste 43 Oeste 0 -- -- 81
2019-07-28 07:00:00 19.6 19 Noroeste 45 Noroeste 0 -- -- 81
2019-07-28 06:00:00 19.5 18 Noroeste 39 Noroeste 0 -- -- 82
2019-07-28 05:00:00 19.6 17 Noroeste 38 Noroeste 0 -- -- 80
2019-07-28 04:00:00 19.7 19 Noroeste 36 Noroeste 0 -- -- 79
2019-07-28 03:00:00 19.4 21 Noroeste 41 Oeste 0 -- -- 81
2019-07-28 02:00:00 19.5 21 Oeste 35 Oeste 0 -- -- 81
2019-07-28 01:00:00 18.9 18 Noroeste 36 Noroeste 0 -- -- 77
2019-07-28 00:00:00 18.8 13 Noroeste 37 Noroeste 0 -- -- 76
2019-07-27 23:00:00 19 21 Noroeste 41 Norte 0 -- -- 74
2019-07-27 22:00:00 19.3 23 Norte 39 Norte 0 -- -- 71
2019-07-26 11:00:00 -- -- -- -- -- -- -- -- --
2019-07-26 10:00:00 -- -- -- -- -- -- -- -- --
2019-07-26 09:00:00 24.3 20 Norte 29 Norte 0 -- -- 57
2019-07-26 08:00:00 25.4 13 Noroeste 28 Noroeste 0 -- -- 40
2019-07-26 07:00:00 24.3 20 Oeste 28 Oeste 0 -- -- 48
2019-07-26 06:00:00 23.6 13 Noroeste 24 Noroeste 0 -- -- 56
2019-07-26 05:00:00 23.9 16 Noroeste 29 Noroeste 0 -- -- 56
2019-07-26 04:00:00 23.1 12 Noroeste 25 Noroeste 0 -- -- 59
2019-07-26 03:00:00 23.4 13 Noroeste 28 Noroeste 0 -- -- 60
2019-07-26 02:00:00 23.1 14 Oeste 33 Noroeste 0 -- -- 61
2019-07-26 01:00:00 22.7 19 Noroeste 36 Noroeste 0 -- -- 60
2019-07-26 00:00:00 23.4 16 Oeste 33 Noroeste 0 -- -- 37
2019-07-25 23:00:00 21.6 24 Noroeste 39 Noroeste 0 -- -- 65
2019-07-25 22:00:00 23 22 Noroeste 40 Noroeste 0 -- -- 47
2019-07-25 21:00:00 24.9 17 Noroeste 32 Noroeste 0 -- -- 25
2019-07-25 20:00:00 26.7 14 Noroeste 35 Noroeste 0 -- -- 26
2019-07-25 19:00:00 27.9 22 Noroeste 38 Norte 0 -- -- 28
2019-07-25 18:00:00 29.4 17 Norte 35 Norte 0 -- -- 27
2019-07-25 17:00:00 29.3 17 Norte 32 Norte 0 -- -- 27
2019-07-25 16:00:00 28.2 22 Norte 36 Noroeste 0 -- -- 35
2019-07-25 15:00:00 28.8 22 Norte 36 Noroeste 0 -- -- 29
2019-07-25 14:00:00 29.9 21 Norte 31 Noroeste 0 -- -- 24
2019-07-25 13:00:00 29.3 16 Noroeste 33 Noroeste 0 -- -- 23
2019-07-25 12:00:00 29.4 18 Noroeste 32 Noroeste 0 -- -- 22
2019-07-25 11:00:00 27.2 18 Noroeste 32 Norte 0 -- -- 24
2019-07-25 10:00:00 27.4 15 Norte 32 Oeste 0 -- -- 22
2019-07-25 09:00:00 26.2 13 Noroeste 28 Noroeste 0 -- -- 26
2019-07-25 08:00:00 23.5 12 Noroeste 20 Noroeste 0 -- -- 30
2019-07-25 07:00:00 23.7 11 Noroeste 25 Noroeste 0 -- -- 28
2019-07-25 06:00:00 23.6 9 Noroeste 24 Noroeste 0 -- -- 28
2019-07-25 05:00:00 23.6 15 Noroeste 27 Noroeste 0 -- -- 30
2019-07-25 04:00:00 23.9 13 Noroeste 35 Noroeste 0 -- -- 28
2019-07-25 03:00:00 23.7 14 Noroeste 27 Noroeste 0 -- -- 29
2019-07-25 02:00:00 23.7 14 Noroeste 31 Oeste 0 -- -- 29
2019-07-25 01:00:00 24.4 17 Noroeste 29 Noroeste 0 -- -- 26
2019-07-25 00:00:00 25.6 13 Noroeste 32 Oeste 0 -- -- 25
2019-07-24 23:00:00 25.2 12 Noroeste 26 Noroeste 0 -- -- 25
2019-07-24 22:00:00 25 17 Noroeste 27 Noroeste 0 -- -- 30
2019-07-24 21:00:00 22.7 17 Norte 30 Noroeste 0 -- -- 57
2019-07-24 20:00:00 23.1 15 Noroeste 36 Noroeste 0 -- -- 60
2019-07-24 19:00:00 27.3 15 Norte 31 Norte 0 -- -- 42
2019-07-24 18:00:00 29.4 17 Norte 32 Norte 0 -- -- 36
2019-07-24 17:00:00 30.6 19 Noroeste 39 Noroeste 0 -- -- 27
2019-07-24 16:00:00 29.7 19 Noroeste 32 Noroeste 0 -- -- 33
2019-07-24 15:00:00 28.3 19 Norte 32 Noroeste 0 -- -- 44
2019-07-24 14:00:00 30.4 17 Norte 30 Norte 0 -- -- 29
2019-07-24 13:00:00 29.4 14 Noroeste 27 Noroeste 0 -- -- 34
2019-07-24 12:00:00 25.7 21 Norte 34 Norte 0 -- -- 52
2019-07-24 11:00:00 26.1 23 Norte 31 Norte 0 -- -- 47
2019-07-24 10:00:00 26.9 15 Noroeste 24 Noroeste 0 -- -- 25
2019-07-24 09:00:00 25.4 12 Noroeste 23 Norte 0 -- -- 27
2019-07-24 08:00:00 21.2 5 Noroeste 17 Norte 0 -- -- 49
2019-07-24 07:00:00 21.4 9 Noroeste 22 Noroeste 0 -- -- 53
2019-07-24 06:00:00 23 11 Noroeste 21 Norte 0 -- -- 46
2019-07-24 05:00:00 20.8 11 Noroeste 26 Oeste 0 -- -- 57
2019-07-24 04:00:00 24.5 16 Oeste 27 Oeste 0 -- -- 43
2019-07-24 03:00:00 21.9 9 Noroeste 27 Noroeste 0 -- -- 52
2019-07-24 02:00:00 18.9 19 Noroeste 43 Norte 0 -- -- 69
2019-07-24 01:00:00 19.3 26 Norte 42 Noroeste 0 -- -- 70
2019-07-24 00:00:00 19 26 Noroeste 49 Norte 0 -- -- 73
2019-07-23 23:00:00 18.8 24 Noroeste 41 Noroeste 0 -- -- 76
2019-07-23 22:00:00 20.7 22 Norte 33 Noroeste 0 -- -- 60
2019-07-23 21:00:00 20.9 18 Noroeste 33 Noroeste 0 -- -- 60
2019-07-23 20:00:00 21.5 28 Norte 44 Norte 0 -- -- 66
2019-07-23 19:00:00 23.1 26 Norte 41 Norte 0 -- -- 61
2019-07-23 18:00:00 25 25 Norte 45 Norte 0 -- -- 56
2019-07-23 17:00:00 23.8 29 Norte 46 Norte 0 -- -- 58
2019-07-23 16:00:00 23.8 30 Norte 45 Noroeste 0 -- -- 59
2019-07-23 15:00:00 24.9 28 Norte 42 Norte 0 -- -- 56
2019-07-23 14:00:00 24.7 27 Norte 41 Norte 0 -- -- 55
2019-07-23 13:00:00 23.7 29 Norte 44 Norte 0 -- -- 59
2019-07-23 12:00:00 22.6 27 Norte 49 Norte 0 -- -- 62
2019-07-23 11:00:00 22.1 26 Norte 40 Noroeste 0 -- -- 62
2019-07-23 10:00:00 21.4 26 Norte 38 Norte 0 -- -- 62
2019-07-23 09:00:00 20.1 19 Noroeste 38 Norte 0 -- -- 66
2019-07-23 08:00:00 18 22 Noroeste 41 Noroeste 0 -- -- 75
2019-07-23 07:00:00 17.7 22 Noroeste 45 Noroeste 0 -- -- 77
2019-07-23 06:00:00 17.9 28 Noroeste 44 Norte 0 -- -- 79
2019-07-23 05:00:00 18 22 Noroeste 44 Noroeste 0 -- -- 79
2019-07-23 04:00:00 18.2 17 Noroeste 44 Noroeste 0 -- -- 80
2019-07-23 03:00:00 18.1 23 Noroeste 42 Noroeste 0 -- -- 79
2019-07-23 02:00:00 18.2 25 Noroeste 48 Noroeste 0 -- -- 79
2019-07-23 01:00:00 18.3 22 Noroeste 52 Norte 0 -- -- 79
2019-07-23 00:00:00 18.3 25 Noroeste 46 Norte 0 -- -- 80
2019-07-22 23:00:00 18.4 26 Noroeste 45 Norte 0 -- -- 79
2019-07-22 22:00:00 18.6 31 Norte 46 Norte 0 -- -- 78
2019-07-22 21:00:00 19.3 23 Noroeste 37 Norte 0 -- -- 77
2019-07-22 20:00:00 21.3 21 Noroeste 36 Noroeste 0 -- -- 71
2019-07-22 19:00:00 22.9 12 Norte 37 Norte 0 -- -- 66
2019-07-22 18:00:00 23.3 22 Norte 42 Norte 0 -- -- 65
2019-07-22 17:00:00 24.1 22 Norte 41 Norte 0 -- -- 63
2019-07-22 16:00:00 24.4 22 Norte 42 Norte 0 -- -- 61
2019-07-22 15:00:00 24.2 26 Norte 43 Noroeste 0 -- -- 62
2019-07-22 14:00:00 24.2 19 Norte 39 Norte 0 -- -- 61
2019-07-22 13:00:00 23.7 19 Noroeste 44 Noroeste 0 -- -- 62
2019-07-22 12:00:00 22.6 23 Norte 40 Norte 0 -- -- 66
2019-07-22 11:00:00 21.5 26 Norte 40 Norte 0 -- -- 69
2019-07-22 10:00:00 20.3 19 Noroeste 39 Noroeste 0 -- -- 73
2019-07-22 09:00:00 19 26 Noroeste 46 Norte 0 -- -- 78
2019-07-22 08:00:00 17.9 15 Noroeste 39 Noroeste 0 -- -- 82
2019-07-22 07:00:00 17.9 20 Noroeste 43 Noroeste 0 -- -- 84
2019-07-22 06:00:00 17.9 10 Noroeste 38 Noroeste 0 -- -- 82
2019-07-22 05:00:00 18.2 12 Noroeste 41 Noroeste 0 -- -- 82
2019-07-22 04:00:00 18.2 17 Noroeste 40 Noroeste 0 -- -- 82
2019-07-22 03:00:00 18.2 11 Noroeste 32 Norte 0 -- -- 83
2019-07-22 02:00:00 18.2 11 Noroeste 29 Oeste 0 -- -- 82
2019-07-22 01:00:00 18.6 14 Oeste 31 Oeste 0 -- -- 81
2019-07-22 00:00:00 18.8 9 Noroeste 32 Noroeste 0 -- -- 80
2019-07-21 23:00:00 19 24 Noroeste 39 Noroeste 0 -- -- 79
2019-07-21 22:00:00 19.1 23 Norte 37 Norte 0 -- -- 79
2019-07-21 21:00:00 19.5 17 Noroeste 33 Norte 0 -- -- 78
2019-07-21 20:00:00 21.2 19 Noroeste 34 Noroeste 0 -- -- 71
2019-07-21 19:00:00 22.4 23 Norte 40 Noroeste 0 -- -- 67
2019-07-21 18:00:00 23.7 23 Norte 42 Noroeste 0 -- -- 62
2019-07-21 17:00:00 23.8 22 Noroeste 39 Norte 0 -- -- 63
2019-07-21 16:00:00 23.7 27 Norte 39 Norte 0 -- -- 64
2019-07-21 15:00:00 24.2 23 Norte 37 Norte 0 -- -- 61
2019-07-21 14:00:00 23.8 21 Norte 40 Norte 0 -- -- 63
2019-07-21 13:00:00 23.9 20 Norte 32 Norte 0 -- -- 64
2019-07-21 12:00:00 23.2 19 Norte 35 Norte 0 -- -- 65
2019-07-21 11:00:00 22.4 13 Noroeste 31 Noroeste 0 -- -- 68
2019-07-21 10:00:00 20.4 13 Noroeste 28 Norte 0 -- -- 75
2019-07-21 09:00:00 19.2 11 Noroeste 28 Noroeste 0 -- -- 80
2019-07-21 08:00:00 18.7 15 Norte 27 Noroeste 0 -- -- 81
2019-07-21 07:00:00 18.7 11 Noroeste 32 Noroeste 0 -- -- 82
2019-07-21 06:00:00 18.8 12 Noroeste 31 Noroeste 0 -- -- 82
2019-07-21 05:00:00 19 10 Noroeste 25 Noroeste 0 -- -- 81
2019-07-21 04:00:00 19.5 11 Noroeste 30 Noroeste 0 -- -- 81
2019-07-21 03:00:00 19.5 18 Noroeste 31 Noroeste 0 -- -- 80
2019-07-21 02:00:00 19.3 14 Noroeste 39 Norte 0 -- -- 79
2019-07-21 01:00:00 19.5 15 Noroeste 31 Oeste 0 -- -- 79
2019-07-21 00:00:00 19.3 15 Noroeste 39 Oeste 0 -- -- 79
2019-07-20 23:00:00 19.7 17 Oeste 31 Oeste 0 -- -- 78
2019-07-20 22:00:00 19.9 16 Noroeste 33 Noroeste 0 -- -- 76
2019-07-20 21:00:00 19.9 21 Noroeste 41 Oeste 0 -- -- 75
2019-07-20 20:00:00 21 27 Norte 40 Noroeste 0 -- -- 70
2019-07-20 19:00:00 22.8 19 Noroeste 41 Noroeste 0 -- -- 64
2019-07-20 18:00:00 23.8 22 Norte 37 Norte 0 -- -- 60
2019-07-20 17:00:00 24 23 Norte 44 Noroeste 0 -- -- 59
2019-07-20 16:00:00 24.4 24 Norte 42 Noroeste 0 -- -- 58
2019-07-20 15:00:00 23.6 24 Noroeste 40 Noroeste 0 -- -- 60
2019-07-20 14:00:00 23.5 23 Norte 36 Norte 0 -- -- 63
2019-07-20 13:00:00 22.8 21 Norte 34 Norte 0 -- -- 64
2019-07-20 12:00:00 20 19 Noroeste 32 Noroeste 0 -- -- 79
2019-07-20 11:00:00 20.1 18 Norte 35 Noroeste 0 -- -- 78
2019-07-20 10:00:00 19.7 17 Noroeste 34 Noroeste 0 -- -- 79
2019-07-20 09:00:00 19.4 12 Noroeste 35 Noroeste 0 -- -- 77
2019-07-20 08:00:00 18.9 18 Noroeste 36 Oeste 0 -- -- 82
2019-07-20 07:00:00 19.7 15 Noroeste 39 Oeste 0 -- -- 74
2019-07-20 06:00:00 19 17 Noroeste 36 Noroeste 0 -- -- 79
2019-07-20 05:00:00 19.3 18 Noroeste 39 Noroeste 0 -- -- 77
2019-07-20 04:00:00 19.2 18 Noroeste 38 Noroeste 0 -- -- 76
2019-07-20 03:00:00 18.6 21 Noroeste 41 Noroeste 0 -- -- 79
2019-07-20 02:00:00 19.3 19 Noroeste 40 Noroeste 0 -- -- 78
2019-07-20 01:00:00 19.5 20 Noroeste 38 Noroeste 0 -- -- 78
2019-07-20 00:00:00 19.7 17 Noroeste 39 Noroeste 0 -- -- 75
2019-07-19 23:00:00 19.8 24 Oeste 45 Oeste 0 -- -- 74
2019-07-19 22:00:00 19.7 20 Noroeste 44 Oeste 0 -- -- 75
2019-07-19 21:00:00 19.9 23 Noroeste 48 Noroeste 0 -- -- 74
2019-07-19 20:00:00 20.9 19 Noroeste 54 Noroeste 0 -- -- 70
2019-07-19 19:00:00 22.3 29 Noroeste 49 Noroeste 0 -- -- 63
2019-07-19 18:00:00 22.9 27 Noroeste 51 Noroeste 0 -- -- 60
2019-07-19 17:00:00 22.2 27 Noroeste 53 Noroeste 0 -- -- 62
2019-07-19 16:00:00 23.3 24 Noroeste 48 Noroeste 0 -- -- 60
2019-07-19 15:00:00 23.6 28 Noroeste 49 Noroeste 0 -- -- 57
2019-07-19 14:00:00 23.1 31 Norte 58 Noroeste 0 -- -- 58
2019-07-19 13:00:00 22.9 21 Noroeste 57 Noroeste 0 -- -- 58
2019-07-19 12:00:00 22.5 22 Noroeste 44 Noroeste 0 -- -- 60
2019-07-19 11:00:00 21.1 23 Noroeste 53 Noroeste 0 -- -- 65
2019-07-19 10:00:00 20.3 27 Noroeste 55 Noroeste 0 -- -- 66
2019-07-19 09:00:00 19.1 19 Noroeste 44 Noroeste 0 -- -- 67
2019-07-19 08:00:00 18.6 21 Noroeste 46 Noroeste 0 -- -- 72
2019-07-19 07:00:00 18.5 22 Oeste 45 Noroeste 0 -- -- 68
2019-07-19 06:00:00 18.7 23 Noroeste 50 Noroeste 0 -- -- 73
2019-07-19 05:00:00 18.5 22 Noroeste 47 Noroeste 0 -- -- 73
2019-07-19 04:00:00 18.4 22 Noroeste 41 Oeste 0 -- -- 74
2019-07-19 03:00:00 18.6 23 Noroeste 48 Noroeste 0 -- -- 71
2019-07-19 02:00:00 18.9 22 Oeste 46 Noroeste 0 -- -- 69
2019-07-19 01:00:00 18.7 21 Noroeste 42 Oeste 0 -- -- 73
2019-07-19 00:00:00 18.8 18 Oeste 40 Oeste 0 -- -- 70
2019-07-18 23:00:00 18.8 17 Oeste 39 Noroeste 0 -- -- 71
2019-07-18 22:00:00 19 22 Noroeste 54 Noroeste 0 -- -- 68
2019-07-18 21:00:00 19.2 21 Noroeste 44 Oeste 0 -- -- 68
2019-07-18 20:00:00 19.3 28 Noroeste 52 Noroeste 0 -- -- 71
2019-07-18 19:00:00 20.6 25 Noroeste 55 Noroeste 0 -- -- 69
2019-07-18 18:00:00 21.5 28 Noroeste 49 Noroeste 0 -- -- 61
2019-07-18 17:00:00 22.3 26 Norte 51 Noroeste 0 -- -- 61
2019-07-18 16:00:00 22.2 26 Noroeste 48 Noroeste 0 -- -- 61
2019-07-18 15:00:00 22.8 28 Noroeste 52 Noroeste 0 -- -- 57
2019-07-18 14:00:00 21.9 29 Noroeste 52 Noroeste 0 -- -- 63
2019-07-18 13:00:00 21.2 25 Noroeste 49 Noroeste 0 -- -- 66
2019-07-18 12:00:00 20.6 22 Noroeste 46 Noroeste 0 -- -- 65
2019-07-18 11:00:00 19.4 22 Noroeste 41 Noroeste 0 -- -- 70
2019-07-18 10:00:00 18.9 21 Noroeste 42 Noroeste 0 -- -- 71
2019-07-18 09:00:00 18.4 15 Oeste 41 Noroeste 0 -- -- 73
2019-07-18 08:00:00 18.1 19 Oeste 44 Noroeste 0 -- -- 75
2019-07-18 07:00:00 17.9 18 Oeste 51 Noroeste 0 -- -- 75
2019-07-18 06:00:00 17.9 20 Noroeste 46 Oeste 0 -- -- 76
2019-07-18 05:00:00 18.1 26 Noroeste 42 Oeste 0 -- -- 77
2019-07-18 04:00:00 18 24 Noroeste 48 Noroeste 0 -- -- 77
2019-07-18 03:00:00 18.3 21 Noroeste 45 Noroeste 0 -- -- 76
2019-07-18 02:00:00 18.6 25 Noroeste 47 Noroeste 0 -- -- 77
2019-07-18 01:00:00 18.5 21 Noroeste 45 Noroeste 0 -- -- 78
2019-07-18 00:00:00 18.3 29 Noroeste 49 Noroeste 0 -- -- 78